Barstow Daggett Airport Daggett US
ICAO: KDAG
IATA: DAG
Category: Medium
Scheduled Services: No

Elevation: 1930 ft
TransAlt. 18000 ft.

Airport Communications:
ASOS:132.175
LOS ANGELES CNTR:132.5
HAWK 86:46.7
RIVERSIDE RDO:122.2
CTAF/UNICOM:123

KDAG Zoom In..

If you have problems with the map follow the link
https://www.worldairports.se/pages/airport.php?
ICAO=KDAG

Runways:

(A) RW 04 length 5123 ft width 100 ft
---- / hdg 35

(B) RW 08 length 6402 ft width 150 ft
---- / hdg 74

(C) RW 22 length 5123 ft width 100 ft
---- / hdg 215

(D) RW 26 length 6402 ft width 150 ft
---- / hdg 254

Location; KDAG
Day. 21 / Time. 18.50 Zulu
* Altimeter: 29.97
* Temperature: 26° c. 78.8°f.
* Wind from: VRB° Speed 04 kn.
Dewpoint: 05° c.
Visibility: 10 Statute Miles.
Clouds: Clear (automated report).

KDAG 211850Z AUTO VRB04KT 10SM CLR 26/05 A2997 RMK AO2 SLP130 T02560050


Wind From VRB°
Speed 04 kn.

 
 
jpsmedia.com for Web Design worldairports.se 2018   terms of use